sensor_id;sensor_type;location;lat;lon;timestamp;pressure;altitude;pressure_sealevel;temperature;humidity
55373;BME280;70018;47.838;16.490;2023-06-01T00:00:54;99498.13;;;10.36;57.01
55373;BME280;70018;47.838;16.490;2023-06-01T00:03:22;99494.16;;;10.30;56.52
55373;BME280;70018;47.838;16.490;2023-06-01T00:05:50;99496.13;;;10.23;56.95
55373;BME280;70018;47.838;16.490;2023-06-01T00:08:17;99491.31;;;10.16;56.82
55373;BME280;70018;47.838;16.490;2023-06-01T00:10:44;99497.28;;;10.15;56.74
55373;BME280;70018;47.838;16.490;2023-06-01T00:13:10;99492.16;;;10.20;56.75
55373;BME280;70018;47.838;16.490;2023-06-01T00:15:37;99492.91;;;10.17;57.09
55373;BME280;70018;47.838;16.490;2023-06-01T00:18:03;99483.38;;;10.11;56.46
55373;BME280;70018;47.838;16.490;2023-06-01T00:20:32;99488.53;;;10.16;56.53
55373;BME280;70018;47.838;16.490;2023-06-01T00:22:59;99483.38;;;10.18;56.45
55373;BME280;70018;47.838;16.490;2023-06-01T00:25:26;99485.00;;;10.19;56.22
55373;BME280;70018;47.838;16.490;2023-06-01T00:27:53;99478.66;;;10.19;55.96
55373;BME280;70018;47.838;16.490;2023-06-01T00:30:19;99481.47;;;10.29;55.55
55373;BME280;70018;47.838;16.490;2023-06-01T00:32:46;99478.28;;;10.31;55.26
55373;BME280;70018;47.838;16.490;2023-06-01T00:35:13;99471.97;;;10.30;55.25
55373;BME280;70018;47.838;16.490;2023-06-01T00:37:40;99466.84;;;10.43;54.36
55373;BME280;70018;47.838;16.490;2023-06-01T00:40:07;99468.47;;;10.51;54.09
55373;BME280;70018;47.838;16.490;2023-06-01T00:42:34;99461.28;;;10.43;54.73
55373;BME280;70018;47.838;16.490;2023-06-01T00:45:01;99474.34;;;10.35;54.51
55373;BME280;70018;47.838;16.490;2023-06-01T00:47:27;99468.47;;;10.48;53.78
55373;BME280;70018;47.838;16.490;2023-06-01T00:49:54;99451.78;;;10.40;54.11
55373;BME280;70018;47.838;16.490;2023-06-01T00:52:22;99456.09;;;10.34;54.38
55373;BME280;70018;47.838;16.490;2023-06-01T00:54:48;99459.25;;;10.29;54.41
55373;BME280;70018;47.838;16.490;2023-06-01T00:57:15;99452.53;;;10.30;54.06
55373;BME280;70018;47.838;16.490;2023-06-01T00:59:42;99453.28;;;10.24;54.49
55373;BME280;70018;47.838;16.490;2023-06-01T01:02:10;99460.03;;;10.26;53.92
55373;BME280;70018;47.838;16.490;2023-06-01T01:04:41;99467.97;;;10.24;54.45
55373;BME280;70018;47.838;16.490;2023-06-01T01:07:21;99465.19;;;10.24;54.42
55373;BME280;70018;47.838;16.490;2023-06-01T01:10:07;99463.56;;;10.16;54.22
55373;BME280;70018;47.838;16.490;2023-06-01T01:12:55;99462.41;;;10.17;55.20
55373;BME280;70018;47.838;16.490;2023-06-01T01:15:29;99462.78;;;10.16;55.32
55373;BME280;70018;47.838;16.490;2023-06-01T01:18:03;99465.56;;;10.19;54.77
55373;BME280;70018;47.838;16.490;2023-06-01T01:20:37;99463.59;;;10.23;54.26
55373;BME280;70018;47.838;16.490;2023-06-01T01:23:15;99465.19;;;10.24;54.33
55373;BME280;70018;47.838;16.490;2023-06-01T01:28:59;99464.41;;;10.20;54.50
55373;BME280;70018;47.838;16.490;2023-06-01T01:31:28;99454.84;;;10.14;54.68
55373;BME280;70018;47.838;16.490;2023-06-01T01:33:56;99449.25;;;10.04;54.45
55373;BME280;70018;47.838;16.490;2023-06-01T01:36:24;99456.00;;;10.03;54.50
55373;BME280;70018;47.838;16.490;2023-06-01T01:38:51;99452.84;;;10.04;54.90
55373;BME280;70018;47.838;16.490;2023-06-01T01:41:19;99448.88;;;9.98;54.87
55373;BME280;70018;47.838;16.490;2023-06-01T01:43:45;99449.28;;;10.00;54.93
55373;BME280;70018;47.838;16.490;2023-06-01T01:46:22;99451.22;;;9.93;55.49
55373;BME280;70018;47.838;16.490;2023-06-01T01:49:08;99451.59;;;9.91;55.81
55373;BME280;70018;47.838;16.490;2023-06-01T01:54:13;99453.16;;;9.85;55.92
55373;BME280;70018;47.838;16.490;2023-06-01T01:56:41;99445.22;;;9.83;55.80
55373;BME280;70018;47.838;16.490;2023-06-01T01:59:09;99445.63;;;9.82;55.70
55373;BME280;70018;47.838;16.490;2023-06-01T02:01:36;99429.75;;;9.79;55.81
55373;BME280;70018;47.838;16.490;2023-06-01T02:04:04;99433.34;;;9.83;55.99
55373;BME280;70018;47.838;16.490;2023-06-01T02:06:34;99439.28;;;9.81;55.67
55373;BME280;70018;47.838;16.490;2023-06-01T02:09:00;99434.13;;;9.80;55.44
55373;BME280;70018;47.838;16.490;2023-06-01T02:11:27;99436.91;;;9.80;55.79
55373;BME280;70018;47.838;16.490;2023-06-01T02:13:54;99432.53;;;9.75;55.83
55373;BME280;70018;47.838;16.490;2023-06-01T02:16:20;99423.78;;;9.70;55.82
55373;BME280;70018;47.838;16.490;2023-06-01T02:18:48;99426.19;;;9.75;55.61
55373;BME280;70018;47.838;16.490;2023-06-01T02:21:15;99423.81;;;9.77;55.21
55373;BME280;70018;47.838;16.490;2023-06-01T02:23:42;99421.03;;;9.77;55.55
55373;BME280;70018;47.838;16.490;2023-06-01T02:26:09;99419.03;;;9.74;55.79
55373;BME280;70018;47.838;16.490;2023-06-01T02:28:37;99412.69;;;9.70;55.78
55373;BME280;70018;47.838;16.490;2023-06-01T02:31:07;99419.00;;;9.67;55.78
55373;BME280;70018;47.838;16.490;2023-06-01T02:33:34;99409.53;;;9.71;55.53
55373;BME280;70018;47.838;16.490;2023-06-01T02:36:01;99421.41;;;9.72;55.90
55373;BME280;70018;47.838;16.490;2023-06-01T02:38:28;99411.91;;;9.73;55.71
55373;BME280;70018;47.838;16.490;2023-06-01T02:40:54;99427.75;;;9.72;55.56
55373;BME280;70018;47.838;16.490;2023-06-01T02:43:21;99417.84;;;9.68;55.58
55373;BME280;70018;47.838;16.490;2023-06-01T02:45:48;99421.78;;;9.67;55.93
55373;BME280;70018;47.838;16.490;2023-06-01T02:48:14;99411.47;;;9.64;55.71
55373;BME280;70018;47.838;16.490;2023-06-01T02:50:42;99411.09;;;9.65;56.30
55373;BME280;70018;47.838;16.490;2023-06-01T02:53:08;99409.47;;;9.61;56.24
55373;BME280;70018;47.838;16.490;2023-06-01T02:55:35;99415.81;;;9.58;56.31
55373;BME280;70018;47.838;16.490;2023-06-01T02:58:01;99411.03;;;9.55;56.18
55373;BME280;70018;47.838;16.490;2023-06-01T03:00:28;99411.00;;;9.48;56.42
55373;BME280;70018;47.838;16.490;2023-06-01T03:02:55;99416.16;;;9.49;56.09
55373;BME280;70018;47.838;16.490;2023-06-01T03:05:22;99403.88;;;9.50;56.35
55373;BME280;70018;47.838;16.490;2023-06-01T03:07:49;99415.34;;;9.49;56.14
55373;BME280;70018;47.838;16.490;2023-06-01T03:10:16;99414.56;;;9.48;56.10
55373;BME280;70018;47.838;16.490;2023-06-01T03:12:42;99407.06;;;9.56;55.99
55373;BME280;70018;47.838;16.490;2023-06-01T03:15:09;99409.47;;;9.61;55.97
55373;BME280;70018;47.838;16.490;2023-06-01T03:17:36;99411.88;;;9.62;55.88
55373;BME280;70018;47.838;16.490;2023-06-01T03:20:03;99412.69;;;9.70;55.39
55373;BME280;70018;47.838;16.490;2023-06-01T03:22:30;99404.78;;;9.72;55.53
55373;BME280;70018;47.838;16.490;2023-06-01T03:24:56;99419.84;;;9.74;55.52
55373;BME280;70018;47.838;16.490;2023-06-01T03:27:24;99413.50;;;9.74;55.18
55373;BME280;70018;47.838;16.490;2023-06-01T03:29:50;99408.72;;;9.71;55.64
55373;BME280;70018;47.838;16.490;2023-06-01T03:32:17;99404.78;;;9.72;55.37
55373;BME280;70018;47.838;16.490;2023-06-01T03:34:44;99410.31;;;9.72;55.89
55373;BME280;70018;47.838;16.490;2023-06-01T03:37:11;99420.63;;;9.75;55.37
55373;BME280;70018;47.838;16.490;2023-06-01T03:39:38;99410.34;;;9.79;55.71
55373;BME280;70018;47.838;16.490;2023-06-01T03:42:05;99411.16;;;9.83;55.38
55373;BME280;70018;47.838;16.490;2023-06-01T03:44:33;99422.25;;;9.83;55.58
55373;BME280;70018;47.838;16.490;2023-06-01T03:47:00;99416.34;;;9.88;55.49
55373;BME280;70018;47.838;16.490;2023-06-01T03:49:27;99412.38;;;9.93;55.14
55373;BME280;70018;47.838;16.490;2023-06-01T03:51:54;99407.66;;;9.93;55.06
55373;BME280;70018;47.838;16.490;2023-06-01T03:54:21;99415.16;;;9.96;55.32
55373;BME280;70018;47.838;16.490;2023-06-01T03:56:48;99404.50;;;9.98;54.97
55373;BME280;70018;47.838;16.490;2023-06-01T03:59:14;99409.63;;;10.03;55.00
55373;BME280;70018;47.838;16.490;2023-06-01T04:01:41;99402.94;;;10.08;55.01
55373;BME280;70018;47.838;16.490;2023-06-01T04:04:09;99398.97;;;10.12;54.58
55373;BME280;70018;47.838;16.490;2023-06-01T04:06:36;99397.00;;;10.16;54.38
55373;BME280;70018;47.838;16.490;2023-06-01T04:09:03;99413.66;;;10.23;54.55
55373;BME280;70018;47.838;16.490;2023-06-01T04:11:33;99416.47;;;10.30;54.29
55373;BME280;70018;47.838;16.490;2023-06-01T04:14:00;99411.31;;;10.32;54.20
55373;BME280;70018;47.838;16.490;2023-06-01T04:16:26;99419.22;;;10.34;54.18
55373;BME280;70018;47.838;16.490;2023-06-01T04:18:53;99416.47;;;10.37;54.00
55373;BME280;70018;47.838;16.490;2023-06-01T04:21:21;99416.88;;;10.39;53.90
55373;BME280;70018;47.838;16.490;2023-06-01T04:23:48;99406.56;;;10.43;53.83
55373;BME280;70018;47.838;16.490;2023-06-01T04:26:16;99416.94;;;10.50;53.86
55373;BME280;70018;47.838;16.490;2023-06-01T04:28:44;99407.41;;;10.51;53.81
55373;BME280;70018;47.838;16.490;2023-06-01T04:31:15;99412.16;;;10.51;54.00
55373;BME280;70018;47.838;16.490;2023-06-01T04:33:45;99406.22;;;10.56;53.96
55373;BME280;70018;47.838;16.490;2023-06-01T04:36:20;99398.31;;;10.58;53.63
55373;BME280;70018;47.838;16.490;2023-06-01T04:38:48;99406.25;;;10.63;53.13
55373;BME280;70018;47.838;16.490;2023-06-01T04:41:20;99402.66;;;10.66;52.79
55373;BME280;70018;47.838;16.490;2023-06-01T04:43:51;99397.88;;;10.73;53.07
55373;BME280;70018;47.838;16.490;2023-06-01T04:46:23;99396.72;;;10.81;52.23
55373;BME280;70018;47.838;16.490;2023-06-01T04:48:52;99405.03;;;10.88;52.07
55373;BME280;70018;47.838;16.490;2023-06-01T04:51:19;99414.53;;;10.98;51.20
55373;BME280;70018;47.838;16.490;2023-06-01T04:53:47;99418.50;;;11.11;51.51
55373;BME280;70018;47.838;16.490;2023-06-01T04:56:20;99422.84;;;11.26;51.44
55373;BME280;70018;47.838;16.490;2023-06-01T04:58:52;99420.81;;;11.51;51.06
55373;BME280;70018;47.838;16.490;2023-06-01T05:01:20;99413.66;;;11.64;51.19
55373;BME280;70018;47.838;16.490;2023-06-01T05:03:52;99403.28;;;11.83;50.61
55373;BME280;70018;47.838;16.490;2023-06-01T05:06:22;99411.19;;;11.95;50.97
55373;BME280;70018;47.838;16.490;2023-06-01T05:08:48;99412.28;;;12.08;50.63
55373;BME280;70018;47.838;16.490;2023-06-01T05:11:15;99402.31;;;12.14;50.97
55373;BME280;70018;47.838;16.490;2023-06-01T05:13:42;99407.38;;;12.36;51.15
55373;BME280;70018;47.838;16.490;2023-06-01T05:16:10;99414.81;;;12.50;50.92
55373;BME280;70018;47.838;16.490;2023-06-01T05:18:38;99413.16;;;12.63;51.11
55373;BME280;70018;47.838;16.490;2023-06-01T05:21:04;99414.69;;;12.75;50.97
55373;BME280;70018;47.838;16.490;2023-06-01T05:23:31;99416.50;;;12.95;50.46
55373;BME280;70018;47.838;16.490;2023-06-01T05:25:59;99422.34;;;13.12;50.46
55373;BME280;70018;47.838;16.490;2023-06-01T05:28:32;99427.03;;;13.22;50.49
55373;BME280;70018;47.838;16.490;2023-06-01T05:31:02;99432.09;;;13.34;50.38
55373;BME280;70018;47.838;16.490;2023-06-01T05:33:29;99430.72;;;13.52;50.28
55373;BME280;70018;47.838;16.490;2023-06-01T05:35:56;99435.44;;;13.59;50.12
55373;BME280;70018;47.838;16.490;2023-06-01T05:38:23;99441.81;;;13.59;49.92
55373;BME280;70018;47.838;16.490;2023-06-01T05:40:49;99435.44;;;13.59;50.41
55373;BME280;70018;47.838;16.490;2023-06-01T05:43:16;99439.44;;;13.58;50.14
55373;BME280;70018;47.838;16.490;2023-06-01T05:45:43;99440.06;;;13.73;49.94
55373;BME280;70018;47.838;16.490;2023-06-01T05:48:10;99434.81;;;13.78;49.94
55373;BME280;70018;47.838;16.490;2023-06-01T05:50:40;99436.69;;;13.88;49.83
55373;BME280;70018;47.838;16.490;2023-06-01T05:53:08;99428.56;;;14.01;49.44
55373;BME280;70018;47.838;16.490;2023-06-01T05:55:36;99430.81;;;14.13;49.16
55373;BME280;70018;47.838;16.490;2023-06-01T05:58:02;99432.19;;;14.28;48.81
55373;BME280;70018;47.838;16.490;2023-06-01T06:00:29;99427.66;;;14.41;48.20
55373;BME280;70018;47.838;16.490;2023-06-01T06:02:56;99435.09;;;14.51;48.57
55373;BME280;70018;47.838;16.490;2023-06-01T06:05:23;99432.16;;;14.62;48.21
55373;BME280;70018;47.838;16.490;2023-06-01T06:07:49;99427.66;;;14.68;48.35
55373;BME280;70018;47.838;16.490;2023-06-01T06:10:16;99430.06;;;14.92;47.90
55373;BME280;70018;47.838;16.490;2023-06-01T06:12:43;99439.25;;;15.16;47.75
55373;BME280;70018;47.838;16.490;2023-06-01T06:15:10;99437.19;;;15.20;47.58
55373;BME280;70018;47.838;16.490;2023-06-01T06:17:37;99441.81;;;15.30;47.54
55373;BME280;70018;47.838;16.490;2023-06-01T06:20:04;99437.09;;;15.27;47.47
55373;BME280;70018;47.838;16.490;2023-06-01T06:22:34;99433.31;;;15.14;47.99
55373;BME280;70018;47.838;16.490;2023-06-01T06:25:01;99433.78;;;15.09;47.92
55373;BME280;70018;47.838;16.490;2023-06-01T06:27:28;99436.22;;;15.30;47.71
55373;BME280;70018;47.838;16.490;2023-06-01T06:29:54;99440.34;;;15.45;47.35
55373;BME280;70018;47.838;16.490;2023-06-01T06:32:21;99436.75;;;15.45;47.45
55373;BME280;70018;47.838;16.490;2023-06-01T06:34:48;99441.56;;;15.44;47.47
55373;BME280;70018;47.838;16.490;2023-06-01T06:37:15;99445.25;;;15.41;47.84
55373;BME280;70018;47.838;16.490;2023-06-01T06:39:43;99437.03;;;15.74;47.25
55373;BME280;70018;47.838;16.490;2023-06-01T06:42:10;99439.75;;;15.97;46.82
55373;BME280;70018;47.838;16.490;2023-06-01T06:44:37;99439.19;;;16.25;46.66
55373;BME280;70018;47.838;16.490;2023-06-01T06:47:04;99436.47;;;16.22;46.56
55373;BME280;70018;47.838;16.490;2023-06-01T06:49:31;99436.03;;;16.23;46.62
55373;BME280;70018;47.838;16.490;2023-06-01T06:51:57;99434.44;;;16.22;46.51
55373;BME280;70018;47.838;16.490;2023-06-01T06:54:24;99432.22;;;16.33;46.46
55373;BME280;70018;47.838;16.490;2023-06-01T06:56:50;99452.69;;;16.66;46.38
55373;BME280;70018;47.838;16.490;2023-06-01T06:59:18;99448.06;;;16.75;45.99
55373;BME280;70018;47.838;16.490;2023-06-01T07:01:44;99450.94;;;16.72;46.02
55373;BME280;70018;47.838;16.490;2023-06-01T07:04:11;99450.91;;;16.92;45.82
55373;BME280;70018;47.838;16.490;2023-06-01T07:06:38;99446.00;;;17.12;45.41
55373;BME280;70018;47.838;16.490;2023-06-01T07:09:04;99448.09;;;16.92;45.37
55373;BME280;70018;47.838;16.490;2023-06-01T07:11:35;99446.41;;;16.78;45.76
55373;BME280;70018;47.838;16.490;2023-06-01T07:14:02;99448.25;;;16.84;45.75
55373;BME280;70018;47.838;16.490;2023-06-01T07:16:28;99440.69;;;17.01;45.33
55373;BME280;70018;47.838;16.490;2023-06-01T07:18:56;99442.59;;;17.20;44.97
55373;BME280;70018;47.838;16.490;2023-06-01T07:21:23;99448.78;;;17.44;44.74
55373;BME280;70018;47.838;16.490;2023-06-01T07:23:49;99440.63;;;17.66;44.55
55373;BME280;70018;47.838;16.490;2023-06-01T07:26:16;99450.22;;;17.81;44.75
55373;BME280;70018;47.838;16.490;2023-06-01T07:28:43;99439.03;;;17.93;44.43
55373;BME280;70018;47.838;16.490;2023-06-01T07:31:10;99439.06;;;18.06;44.20
55373;BME280;70018;47.838;16.490;2023-06-01T07:33:36;99452.38;;;17.89;44.47
55373;BME280;70018;47.838;16.490;2023-06-01T07:36:05;99451.13;;;18.19;44.06
55373;BME280;70018;47.838;16.490;2023-06-01T07:38:33;99449.59;;;18.31;43.49
55373;BME280;70018;47.838;16.490;2023-06-01T07:40:59;99442.91;;;18.41;43.77
55373;BME280;70018;47.838;16.490;2023-06-01T07:43:27;99452.22;;;18.38;43.78
55373;BME280;70018;47.838;16.490;2023-06-01T07:45:54;99445.94;;;18.59;43.33
55373;BME280;70018;47.838;16.490;2023-06-01T07:48:21;99449.78;;;18.65;43.19
55373;BME280;70018;47.838;16.490;2023-06-01T07:50:48;99440.78;;;18.70;43.11
55373;BME280;70018;47.838;16.490;2023-06-01T07:53:15;99437.50;;;18.71;42.71
55373;BME280;70018;47.838;16.490;2023-06-01T07:55:41;99438.53;;;18.65;42.93
55373;BME280;70018;47.838;16.490;2023-06-01T07:58:10;99433.88;;;18.84;42.38
55373;BME280;70018;47.838;16.490;2023-06-01T08:00:36;99438.38;;;18.94;42.14
55373;BME280;70018;47.838;16.490;2023-06-01T08:03:03;99435.56;;;19.06;42.27
55373;BME280;70018;47.838;16.490;2023-06-01T08:05:35;99436.03;;;19.17;41.79
55373;BME280;70018;47.838;16.490;2023-06-01T08:08:04;99422.94;;;19.23;42.00
55373;BME280;70018;47.838;16.490;2023-06-01T08:10:31;99429.84;;;19.10;42.01
55373;BME280;70018;47.838;16.490;2023-06-01T08:12:58;99422.84;;;19.02;41.72
55373;BME280;70018;47.838;16.490;2023-06-01T08:15:25;99431.19;;;19.05;42.05
55373;BME280;70018;47.838;16.490;2023-06-01T08:17:56;99423.50;;;19.31;41.48
55373;BME280;70018;47.838;16.490;2023-06-01T08:20:23;99426.31;;;19.65;40.98
55373;BME280;70018;47.838;16.490;2023-06-01T08:22:52;99423.63;;;19.62;40.58
55373;BME280;70018;47.838;16.490;2023-06-01T08:25:19;99429.78;;;19.69;40.30
55373;BME280;70018;47.838;16.490;2023-06-01T08:27:45;99421.47;;;20.00;40.24
55373;BME280;70018;47.838;16.490;2023-06-01T08:30:12;99421.25;;;20.16;39.48
55373;BME280;70018;47.838;16.490;2023-06-01T08:32:39;99421.31;;;20.25;39.99
55373;BME280;70018;47.838;16.490;2023-06-01T08:35:07;99425.66;;;20.48;39.04
55373;BME280;70018;47.838;16.490;2023-06-01T08:37:35;99425.41;;;20.55;38.76
55373;BME280;70018;47.838;16.490;2023-06-01T08:40:02;99429.34;;;20.57;38.41
55373;BME280;70018;47.838;16.490;2023-06-01T08:42:42;99418.97;;;20.54;38.35
55373;BME280;70018;47.838;16.490;2023-06-01T08:45:12;99418.56;;;20.43;38.39
55373;BME280;70018;47.838;16.490;2023-06-01T08:47:40;99414.91;;;20.55;38.64
55373;BME280;70018;47.838;16.490;2023-06-01T08:50:10;99410.63;;;20.82;38.36
55373;BME280;70018;47.838;16.490;2023-06-01T08:52:38;99410.34;;;20.98;38.19
55373;BME280;70018;47.838;16.490;2023-06-01T08:55:05;99405.19;;;21.05;37.84
55373;BME280;70018;47.838;16.490;2023-06-01T08:57:32;99403.53;;;21.17;36.93
55373;BME280;70018;47.838;16.490;2023-06-01T08:59:59;99405.03;;;21.00;37.11
55373;BME280;70018;47.838;16.490;2023-06-01T09:02:26;99399.97;;;20.86;37.23
55373;BME280;70018;47.838;16.490;2023-06-01T09:04:54;99400.63;;;20.99;36.46
55373;BME280;70018;47.838;16.490;2023-06-01T09:07:20;99402.38;;;21.05;36.53
55373;BME280;70018;47.838;16.490;2023-06-01T09:09:48;99399.78;;;21.20;35.96
55373;BME280;70018;47.838;16.490;2023-06-01T09:12:23;99400.41;;;21.33;35.72
55373;BME280;70018;47.838;16.490;2023-06-01T09:15:13;99395.69;;;21.21;35.50
55373;BME280;70018;47.838;16.490;2023-06-01T09:17:42;99390.84;;;21.58;35.47
55373;BME280;70018;47.838;16.490;2023-06-01T09:20:25;99389.13;;;21.51;35.34
55373;BME280;70018;47.838;16.490;2023-06-01T09:22:53;99392.28;;;21.71;34.64
55373;BME280;70018;47.838;16.490;2023-06-01T09:25:25;99395.13;;;21.62;34.06
55373;BME280;70018;47.838;16.490;2023-06-01T09:27:55;99384.28;;;21.97;34.03
55373;BME280;70018;47.838;16.490;2023-06-01T09:30:24;99386.06;;;22.27;33.34
55373;BME280;70018;47.838;16.490;2023-06-01T09:33:07;99385.91;;;22.31;33.06
55373;BME280;70018;47.838;16.490;2023-06-01T09:35:46;99386.66;;;22.50;33.35
55373;BME280;70018;47.838;16.490;2023-06-01T09:38:23;99384.22;;;22.24;33.29
55373;BME280;70018;47.838;16.490;2023-06-01T09:40:59;99371.53;;;22.02;33.10
55373;BME280;70018;47.838;16.490;2023-06-01T09:43:26;99373.28;;;21.90;33.07
55373;BME280;70018;47.838;16.490;2023-06-01T09:46:06;99379.66;;;22.18;32.51
55373;BME280;70018;47.838;16.490;2023-06-01T09:48:33;99376.47;;;22.43;32.49
55373;BME280;70018;47.838;16.490;2023-06-01T09:51:00;99373.69;;;22.16;32.33
55373;BME280;70018;47.838;16.490;2023-06-01T09:53:39;99374.84;;;21.91;30.29
55373;BME280;70018;47.838;16.490;2023-06-01T09:56:06;99370.94;;;21.61;32.25
55373;BME280;70018;47.838;16.490;2023-06-01T09:58:33;99358.06;;;21.78;32.38
55373;BME280;70018;47.838;16.490;2023-06-01T10:01:06;99363.00;;;22.20;32.21
55373;BME280;70018;47.838;16.490;2023-06-01T10:03:38;99363.59;;;22.42;31.90
55373;BME280;70018;47.838;16.490;2023-06-01T10:06:07;99357.59;;;22.40;31.43
55373;BME280;70018;47.838;16.490;2023-06-01T10:08:35;99366.31;;;22.60;31.64
55373;BME280;70018;47.838;16.490;2023-06-01T10:11:02;99359.34;;;22.70;31.57
55373;BME280;70018;47.838;16.490;2023-06-01T10:13:29;99349.34;;;22.60;31.30
55373;BME280;70018;47.838;16.490;2023-06-01T10:15:57;99353.34;;;22.77;31.64
55373;BME280;70018;47.838;16.490;2023-06-01T10:18:24;99355.19;;;22.89;31.24
55373;BME280;70018;47.838;16.490;2023-06-01T10:20:52;99351.78;;;22.76;31.14
55373;BME280;70018;47.838;16.490;2023-06-01T10:23:19;99342.78;;;22.54;31.12
55373;BME280;70018;47.838;16.490;2023-06-01T10:25:57;99347.25;;;22.37;31.56
55373;BME280;70018;47.838;16.490;2023-06-01T10:28:27;99340.22;;;22.65;31.07
55373;BME280;70018;47.838;16.490;2023-06-01T10:34:05;99337.94;;;22.78;31.04
55373;BME280;70018;47.838;16.490;2023-06-01T10:39:28;99330.56;;;22.48;30.84
55373;BME280;70018;47.838;16.490;2023-06-01T10:41:57;99328.59;;;22.63;31.33
55373;BME280;70018;47.838;16.490;2023-06-01T10:44:53;99314.94;;;22.85;29.38
55373;BME280;70018;47.838;16.490;2023-06-01T10:52:33;99311.50;;;22.81;30.45
55373;BME280;70018;47.838;16.490;2023-06-01T10:57:33;99301.69;;;23.15;31.04
55373;BME280;70018;47.838;16.490;2023-06-01T11:05:45;99301.00;;;23.44;30.82
55373;BME280;70018;47.838;16.490;2023-06-01T11:13:29;99297.53;;;23.63;30.36
55373;BME280;70018;47.838;16.490;2023-06-01T11:19:00;99297.53;;;22.78;30.77
55373;BME280;70018;47.838;16.490;2023-06-01T11:21:40;99282.75;;;23.06;30.99
55373;BME280;70018;47.838;16.490;2023-06-01T11:24:15;99285.75;;;23.03;30.87
55373;BME280;70018;47.838;16.490;2023-06-01T11:26:49;99286.63;;;22.62;31.37
55373;BME280;70018;47.838;16.490;2023-06-01T11:29:19;99277.84;;;22.83;31.15
55373;BME280;70018;47.838;16.490;2023-06-01T11:34:19;99273.72;;;23.32;31.08
55373;BME280;70018;47.838;16.490;2023-06-01T11:36:48;99268.63;;;23.21;31.14
55373;BME280;70018;47.838;16.490;2023-06-01T11:39:26;99268.22;;;23.28;30.45
55373;BME280;70018;47.838;16.490;2023-06-01T11:42:09;99260.78;;;23.16;30.49
55373;BME280;70018;47.838;16.490;2023-06-01T11:44:39;99259.81;;;23.19;31.09
55373;BME280;70018;47.838;16.490;2023-06-01T11:47:08;99255.38;;;23.56;30.68
55373;BME280;70018;47.838;16.490;2023-06-01T11:49:43;99258.13;;;23.65;30.79
55373;BME280;70018;47.838;16.490;2023-06-01T11:52:11;99250.59;;;23.77;30.96
55373;BME280;70018;47.838;16.490;2023-06-01T11:54:38;99255.38;;;24.00;30.69
55373;BME280;70018;47.838;16.490;2023-06-01T11:57:06;99242.59;;;23.61;30.80
55373;BME280;70018;47.838;16.490;2023-06-01T11:59:38;99238.25;;;23.22;31.02
55373;BME280;70018;47.838;16.490;2023-06-01T12:02:16;99236.00;;;23.55;31.13
55373;BME280;70018;47.838;16.490;2023-06-01T12:07:21;99239.34;;;23.83;30.79
55373;BME280;70018;47.838;16.490;2023-06-01T12:09:48;99233.09;;;23.79;30.93
55373;BME280;70018;47.838;16.490;2023-06-01T12:12:16;99233.97;;;23.99;30.70
55373;BME280;70018;47.838;16.490;2023-06-01T12:14:43;99227.81;;;23.86;31.11
55373;BME280;70018;47.838;16.490;2023-06-01T12:17:10;99228.41;;;23.76;31.26
55373;BME280;70018;47.838;16.490;2023-06-01T12:19:49;99224.50;;;23.73;31.33
55373;BME280;70018;47.838;16.490;2023-06-01T12:22:16;99220.88;;;23.72;31.16
55373;BME280;70018;47.838;16.490;2023-06-01T12:24:43;99212.19;;;23.47;31.46
55373;BME280;70018;47.838;16.490;2023-06-01T12:27:15;99215.19;;;23.29;31.15
55373;BME280;70018;47.838;16.490;2023-06-01T12:29:44;99209.44;;;23.38;31.23
55373;BME280;70018;47.838;16.490;2023-06-01T12:32:13;99209.25;;;23.85;30.70
55373;BME280;70018;47.838;16.490;2023-06-01T12:34:42;99202.00;;;23.99;30.37
55373;BME280;70018;47.838;16.490;2023-06-01T12:37:18;99199.81;;;24.08;30.89
55373;BME280;70018;47.838;16.490;2023-06-01T12:39:55;99201.25;;;24.18;30.48
55373;BME280;70018;47.838;16.490;2023-06-01T12:42:39;99201.31;;;24.39;30.25
55373;BME280;70018;47.838;16.490;2023-06-01T12:45:07;99194.78;;;24.53;30.72
55373;BME280;70018;47.838;16.490;2023-06-01T12:47:41;99187.31;;;24.00;30.61
55373;BME280;70018;47.838;16.490;2023-06-01T12:50:09;99191.06;;;23.77;31.18
55373;BME280;70018;47.838;16.490;2023-06-01T12:52:38;99181.09;;;23.67;30.81
55373;BME280;70018;47.838;16.490;2023-06-01T12:55:06;99182.16;;;23.55;30.69
55373;BME280;70018;47.838;16.490;2023-06-01T12:57:37;99178.75;;;23.36;30.85
55373;BME280;70018;47.838;16.490;2023-06-01T13:00:07;99169.09;;;23.43;31.40
55373;BME280;70018;47.838;16.490;2023-06-01T13:02:34;99163.81;;;23.65;30.98
55373;BME280;70018;47.838;16.490;2023-06-01T13:05:02;99160.59;;;23.43;31.02
55373;BME280;70018;47.838;16.490;2023-06-01T13:07:31;99163.31;;;23.37;31.04
55373;BME280;70018;47.838;16.490;2023-06-01T13:09:58;99156.56;;;23.20;30.74
55373;BME280;70018;47.838;16.490;2023-06-01T13:12:25;99148.59;;;23.19;31.41
55373;BME280;70018;47.838;16.490;2023-06-01T13:14:54;99146.81;;;23.21;31.32
55373;BME280;70018;47.838;16.490;2023-06-01T13:17:22;99140.19;;;22.71;31.42
55373;BME280;70018;47.838;16.490;2023-06-01T13:19:49;99138.28;;;22.92;31.50
55373;BME280;70018;47.838;16.490;2023-06-01T13:22:15;99136.84;;;23.40;31.16
55373;BME280;70018;47.838;16.490;2023-06-01T13:24:42;99132.94;;;23.38;30.70
55373;BME280;70018;47.838;16.490;2023-06-01T13:27:12;99131.09;;;23.05;30.86
55373;BME280;70018;47.838;16.490;2023-06-01T13:29:38;99136.47;;;23.33;31.26
55373;BME280;70018;47.838;16.490;2023-06-01T13:32:05;99128.06;;;23.24;31.12
55373;BME280;70018;47.838;16.490;2023-06-01T13:34:33;99128.13;;;23.00;31.30
55373;BME280;70018;47.838;16.490;2023-06-01T13:36:59;99124.84;;;23.01;31.26
55373;BME280;70018;47.838;16.490;2023-06-01T13:39:26;99111.91;;;22.86;31.48